ウィニペグ国際空港の過去48時間の天気

ウィニペグ国際空港 (Winnipeg Int. Airportman.)

現在時刻: 5/30 12:17 CDT (5/30 17:17 UTC) 以下の時間は現地時間です。

過去48時間のMETAR気象情報
時間 風向 風速(m/s) 視程 気温(℃) 湿度(%) 気圧(hPa) 天気現象
30 11:00 西南西 5 10km以上 13 35 1029
30 10:00 西南西 4 10km以上 12 41 1029.3
30 09:00 南西 3 10km以上 10 50 1029.5
30 08:00 南南西 2 10km以上 7 61 1029.6
30 07:00 西北西 2 10km以上 3 75 1029.3
30 06:00 西 2 10km以上 0 74 1028.9
30 05:00 北西 1 10km以上 -2 86 1028.7
30 04:00 西北西 3 10km以上 -1 80 1028.4
30 03:00 西北西 3 10km以上 2 64 1028
30 02:00 西 3 10km以上 1 69 1027.5
30 01:00 北西 1 10km以上 4 56 1027
30 00:00 北北西 3 10km以上 4 60 1027.2
29 23:00 2 10km以上 4 60 1026.7
29 22:00 北北東 3 10km以上 8 57 1026
29 21:00 北北東 5 10km以上 10 54 1025.4
29 20:00 北北東 4 10km以上 11 54 1025
29 19:00 北北東 6 10km以上 14 44 1024.2
29 18:00 北西 8 10km以上 15 39 1024.1
29 17:00 7 10km以上 14 44 1024.2
29 16:00 8 10km以上 14 47 1024.2
29 15:00 北北西 7 10km以上 13 51 1024
CYWG 301600Z 24009KT 190V270 15SM SKC 13/M02 A3036 RMK SLP290
CYWG 301500Z 25008KT 15SM SKC 12/M01 A3037 RMK SLP293
CYWG 301400Z 23005KT 170V260 15SM SKC 10/M00 A3037 RMK SLP295
CYWG 301300Z 21003KT 15SM SKC 07/00 A3038 RMK SLP296
CYWG 301200Z 29003KT 15SM SKC 03/M01 A3037 RMK SLP293
CYWG 301100Z 27003KT 15SM SKC M00/M04 A3035 RMK SLP289
CYWG 301000Z 31002KT 15SM SKC M02/M04 A3034 RMK SLP287
CYWG 300900Z 29006KT 15SM SKC M01/M04 A3034 RMK SLP284
CYWG 300800Z 30006KT 15SM SKC 02/M04 A3033 RMK SLP280
CYWG 300700Z 27006KT 15SM SKC 01/M04 A3031 RMK SLP275
CYWG 300600Z 32002KT 15SM SKC 04/M04 A3030 RMK SLP270
CYWG 300500Z 34005KT 15SM SKC 04/M03 A3030 RMK SLP272
CYWG 300400Z 35004KT 15SM SKC 04/M03 A3029 RMK SLP267
CYWG 300300Z 03006KT 15SM FEW038 08/00 A3027 RMK SC2 SLP260
CYWG 300200Z 03010KT 15SM SCT040 10/01 A3025 RMK SC4 SLP254
CYWG 300100Z 03008KT 15SM SCT040 11/02 A3024 RMK SC3 SLP250
CYWG 300000Z 02012G17KT 340V050 15SM FEW040 14/02 A3022 RMK SC2 SLP242
CYWG 292300Z 32015G21KT 300V360 15SM SCT041 15/01 A3022 RMK SC3 SLP241
CYWG 292200Z 35014KT 310V020 15SM SCT042 14/02 A3022 RMK SC4 SLP242
CYWG 292100Z 35016KT 290V020 15SM BKN043 14/03 A3022 RMK SC7 SLP242
CYWG 292000Z 33013G20KT 15SM BKN044 13/03 A3021 RMK SC7 SLP240